KSHV/SHV METAR and TAF weather

Enter ICAO airport designator
Station Type Date Time Source
KSHV METAR 2021/03/05 05:56 UTC NOAA

KSHV 050556Z 15006KT 10SM BKN150 13/04 A3002 RMK AO2 SLP164 T01330044 10183 20111 402280028 56003


Station Type Date Time Source
KSHV Decoded METAR 2021/03/05 05:56 UTC NOAA

SHREVEPORT REGIONAL AIRPORT, LA, United States (KSHV) 32-27N 93-50W 80M
Mar 05, 2021 - 12:56 AM EST / 2021.03.05 0556 UTC
Wind: from the SSE (150 degrees) at 7 MPH (6 KT):0
Visibility: 10 mile(s):0
Sky conditions: mostly cloudy
Temperature: 55.9 F (13.3 C)
Dew Point: 39.9 F (4.4 C)
Relative Humidity: 54%
Pressure (altimeter): 30.02 in. Hg (1016 hPa)
Pressure tendency: 0.01 inches (0.3 hPa) lower than three hours ago
ob: KSHV 050556Z 15006KT 10SM BKN150 13/04 A3002 RMK AO2 SLP164 T01330044 10183 20111 402280028 56003
cycle: 6

Station Type Date Time Source
KSHV TAF 2021/03/05 06:24 UTC NOAA

TAF KSHV 050522Z 0506/0606 VRB03KT P6SM BKN150
FM051200 12004KT P6SM VCSH BKN100
FM051800 13007KT P6SM VCSH OVC040
FM052200 08008KT P6SM OVC035
FM060000 05005KT P6SM BKN035

Example: see airport list